Time;durP1;ratioP1;P1;durP2;ratioP2;P2;SDS_P1;SDS_P2;PMS_P1;PMS_P2;Temp;Humidity;BMP_temperature;BMP_pressure;BME280_temperature;BME280_humidity;BME280_pressure;Samples;Min_cycle;Max_cycle;Signal;HPM_P1;HPM_P2
2021/11/02 00:00:37;;;;;;;7.70;3.10;;;8.20;99.90;;;;;;5071570;28;20944;-57
2021/11/02 00:03:04;;;;;;;8.80;2.80;;;8.30;99.90;;;;;;5070703;28;20380;-57
2021/11/02 00:05:31;;;;;;;6.32;2.70;;;8.30;99.90;;;;;;5071672;28;20408;-57
2021/11/02 00:07:57;;;;;;;5.57;2.60;;;8.30;99.90;;;;;;5070390;28;20427;-57
2021/11/02 00:10:23;;;;;;;8.13;3.22;;;8.20;99.90;;;;;;5070979;28;20817;-57
2021/11/02 00:12:50;;;;;;;6.90;2.60;;;8.20;99.90;;;;;;5071205;28;20390;-57
2021/11/02 00:15:24;;;;;;;9.40;3.53;;;8.30;99.90;;;;;;5070036;28;20414;-57
2021/11/02 00:17:53;;;;;;;6.85;2.80;;;8.40;99.90;;;;;;5065906;28;20503;-57
2021/11/02 00:20:20;;;;;;;7.10;2.90;;;8.40;99.90;;;;;;5070427;28;20871;-56
2021/11/02 00:22:56;;;;;;;8.27;2.50;;;8.50;99.90;;;;;;5070997;28;20466;-59
2021/11/02 00:25:23;;;;;;;6.68;2.70;;;8.60;99.90;;;;;;5069520;28;20756;-59
2021/11/02 00:27:49;;;;;;;8.43;3.10;;;8.70;99.90;;;;;;5070544;28;20905;-59
2021/11/02 00:30:16;;;;;;;6.88;2.70;;;8.70;99.90;;;;;;5063522;28;20507;-59
2021/11/02 00:32:44;;;;;;;6.18;2.70;;;8.70;99.90;;;;;;5071233;28;20383;-59
2021/11/02 00:35:11;;;;;;;8.02;2.70;;;8.80;99.90;;;;;;5069887;28;20415;-59
2021/11/02 00:37:38;;;;;;;6.20;2.45;;;8.90;99.90;;;;;;5070705;28;20834;-59
2021/11/02 00:40:06;;;;;;;7.65;2.55;;;8.90;99.90;;;;;;5069603;28;20498;-59
2021/11/02 00:42:40;;;;;;;8.68;2.50;;;8.90;99.90;;;;;;5063369;28;20401;-59
2021/11/02 00:45:11;;;;;;;5.90;2.28;;;8.90;99.90;;;;;;5055123;28;20490;-58
2021/11/02 00:47:39;;;;;;;7.18;2.40;;;8.90;99.90;;;;;;5065215;28;20850;-58
2021/11/02 00:50:11;;;;;;;6.38;2.53;;;8.90;99.90;;;;;;5069669;28;20372;-59
2021/11/02 00:52:38;;;;;;;5.75;2.20;;;9.00;99.90;;;;;;5070672;28;20379;-59
2021/11/02 00:55:08;;;;;;;6.43;2.20;;;9.10;99.90;;;;;;5069343;28;20790;-60
2021/11/02 00:57:35;;;;;;;6.43;1.90;;;9.20;99.90;;;;;;5070285;28;20383;-59
2021/11/02 01:00:01;;;;;;;5.90;2.30;;;9.20;99.90;;;;;;5059493;28;20411;-59
2021/11/02 01:02:27;;;;;;;7.68;2.30;;;9.30;99.90;;;;;;5066552;28;20407;-59
2021/11/02 01:04:52;;;;;;;5.70;2.03;;;9.40;99.90;;;;;;5066791;28;20380;-61
2021/11/02 01:07:18;;;;;;;6.73;1.97;;;9.40;99.90;;;;;;5069968;28;20777;-59
2021/11/02 01:09:44;;;;;;;5.50;1.80;;;9.40;99.90;;;;;;5057531;28;20844;-59
2021/11/02 01:12:11;;;;;;;10.90;2.00;;;9.30;99.90;;;;;;5051302;28;20407;-59
2021/11/02 01:14:37;;;;;;;5.28;1.70;;;9.30;99.90;;;;;;5051261;28;20400;-60
2021/11/02 01:17:03;;;;;;;7.60;1.92;;;9.40;99.90;;;;;;5050007;28;20511;-59
2021/11/02 01:19:29;;;;;;;6.50;2.60;;;9.40;99.90;;;;;;5056620;28;20384;-59
2021/11/02 01:21:55;;;;;;;7.32;1.90;;;9.40;99.90;;;;;;5070024;28;20388;-61
2021/11/02 01:24:21;;;;;;;6.33;1.73;;;9.40;99.90;;;;;;5068873;28;20384;-58
2021/11/02 01:26:47;;;;;;;7.63;2.30;;;9.40;99.90;;;;;;5069577;28;20442;-59
2021/11/02 01:29:15;;;;;;;5.80;2.10;;;9.40;99.90;;;;;;5069111;28;20375;-59
2021/11/02 01:31:44;;;;;;;9.15;2.50;;;9.40;99.90;;;;;;5069771;28;20391;-59
2021/11/02 01:34:10;;;;;;;5.35;2.47;;;9.30;99.90;;;;;;5068953;28;20383;-59
2021/11/02 01:36:36;;;;;;;7.85;3.08;;;9.20;99.90;;;;;;5070066;28;20463;-59
2021/11/02 01:39:02;;;;;;;8.75;3.10;;;9.10;99.90;;;;;;5068563;28;20395;-59
2021/11/02 01:41:29;;;;;;;5.47;2.63;;;9.10;99.90;;;;;;5069288;28;20478;-58
2021/11/02 01:43:57;;;;;;;8.65;2.65;;;9.10;99.90;;;;;;5069287;28;20881;-58
2021/11/02 01:46:35;;;;;;;5.67;2.53;;;9.10;99.90;;;;;;5069601;28;20402;-58
2021/11/02 01:49:04;;;;;;;9.50;2.60;;;9.10;99.90;;;;;;5068543;28;20740;-59
2021/11/02 01:51:32;;;;;;;5.68;2.10;;;9.30;99.90;;;;;;5069194;28;20392;-59
2021/11/02 01:53:59;;;;;;;5.13;2.00;;;9.20;99.90;;;;;;5068696;28;20445;-59
2021/11/02 01:56:25;;;;;;;7.13;2.30;;;9.10;99.90;;;;;;5069172;28;20403;-58
2021/11/02 01:58:53;;;;;;;7.57;2.08;;;9.20;99.90;;;;;;5069078;28;20383;-59
2021/11/02 02:01:33;;;;;;;5.95;2.50;;;9.10;99.90;;;;;;5068763;28;20735;-59
2021/11/02 02:04:15;;;;;;;9.15;2.95;;;9.30;99.90;;;;;;5068570;28;20379;-59
2021/11/02 02:06:49;;;;;;;5.88;2.70;;;9.40;99.90;;;;;;5069421;28;20859;-59
2021/11/02 02:09:25;;;;;;;7.10;2.33;;;9.50;99.90;;;;;;5057212;28;20392;-58
2021/11/02 02:12:12;;;;;;;8.77;2.90;;;9.50;99.90;;;;;;5061916;28;20515;-59
2021/11/02 02:14:44;;;;;;;8.27;2.90;;;9.60;99.90;;;;;;5067328;28;20434;-59
2021/11/02 02:17:18;;;;;;;7.75;2.33;;;9.70;99.90;;;;;;5071309;28;20391;-58
2021/11/02 02:19:55;;;;;;;7.45;2.40;;;9.80;99.90;;;;;;5073194;28;20435;-59
2021/11/02 02:22:41;;;;;;;7.05;2.60;;;9.70;99.90;;;;;;5072940;28;20384;-58
2021/11/02 02:25:31;;;;;;;7.70;3.03;;;9.60;99.90;;;;;;5072633;28;20371;-58
2021/11/02 02:28:18;;;;;;;11.07;3.50;;;9.40;99.90;;;;;;5059646;28;20411;-60
2021/11/02 02:30:54;;;;;;;6.35;2.50;;;9.40;99.90;;;;;;5073405;28;20383;-59
2021/11/02 02:33:27;;;;;;;6.00;2.60;;;9.50;99.90;;;;;;5072749;28;20453;-58
2021/11/02 02:35:55;;;;;;;7.50;2.65;;;9.40;99.90;;;;;;5072990;28;20470;-58
2021/11/02 02:38:22;;;;;;;6.18;2.75;;;9.30;99.90;;;;;;5072227;28;20399;-58
2021/11/02 02:40:50;;;;;;;7.40;2.90;;;9.30;99.90;;;;;;5072611;28;20510;-59
2021/11/02 02:43:18;;;;;;;7.00;3.03;;;9.30;99.90;;;;;;5070791;28;20387;-59
2021/11/02 02:45:44;;;;;;;6.75;2.38;;;9.40;99.90;;;;;;5071313;28;20376;-59
2021/11/02 02:48:10;;;;;;;6.70;2.70;;;9.40;99.90;;;;;;5072120;28;20380;-59
2021/11/02 02:50:37;;;;;;;6.85;2.83;;;9.50;99.90;;;;;;5072996;28;20913;-58
2021/11/02 02:53:05;;;;;;;7.32;2.92;;;9.50;99.90;;;;;;5071967;28;20414;-59
2021/11/02 02:55:32;;;;;;;8.27;2.90;;;9.50;99.90;;;;;;5072193;28;20387;-59
2021/11/02 02:58:00;;;;;;;5.95;2.70;;;9.40;99.90;;;;;;5071897;28;20473;-59
2021/11/02 03:00:28;;;;;;;10.77;2.60;;;9.30;99.90;;;;;;5071390;28;20510;-58
2021/11/02 03:02:55;;;;;;;7.28;2.72;;;9.30;99.90;;;;;;5072464;28;20446;-58
2021/11/02 03:05:24;;;;;;;6.60;2.65;;;9.30;99.90;;;;;;5071937;28;20882;-58
2021/11/02 03:07:54;;;;;;;9.25;2.50;;;9.10;99.90;;;;;;5072196;28;20395;-58
2021/11/02 03:10:21;;;;;;;6.85;2.75;;;9.10;99.90;;;;;;5071494;28;20456;-58
2021/11/02 03:12:49;;;;;;;7.18;3.35;;;9.00;99.90;;;;;;5070889;28;20416;-58
2021/11/02 03:49:25;;;;;;;5.50;2.30;;;8.70;99.90;;;;;;5070837;28;20540;-56
2021/11/02 04:27:17;;;;;;;7.63;3.40;;;8.50;99.90;;;;;;5070038;28;20852;-59
2021/11/02 04:33:11;;;;;;;8.02;2.80;;;8.20;99.90;;;;;;5070740;28;20425;-56
2021/11/02 05:13:34;;;;;;;7.80;3.60;;;7.30;99.90;;;;;;5068618;28;20411;-56
2021/11/02 05:49:17;;;;;;;6.68;2.90;;;6.80;99.90;;;;;;5034085;28;20421;-56
2021/11/02 06:30:10;;;;;;;6.35;2.83;;;6.50;99.90;;;;;;5039555;28;20424;-56
2021/11/02 06:32:39;;;;;;;6.28;2.85;;;6.50;99.90;;;;;;5036828;28;20486;-56
2021/11/02 06:35:18;;;;;;;6.30;2.58;;;6.50;99.90;;;;;;5042980;28;20466;-56
2021/11/02 06:37:57;;;;;;;6.20;2.40;;;6.60;99.90;;;;;;5044456;28;20424;-55
2021/11/02 06:45:56;;;;;;;6.88;2.70;;;6.70;99.90;;;;;;5042541;28;20431;-55
2021/11/02 06:49:32;;;;;;;6.10;2.70;;;6.60;99.90;;;;;;5035918;28;20400;-56
2021/11/02 08:46:44;;;;;;;5.47;2.10;;;14.30;99.90;;;;;;5045171;28;20540;-57
2021/11/02 08:49:10;;;;;;;5.30;1.80;;;13.40;99.90;;;;;;5042687;28;20780;-58
2021/11/02 08:51:36;;;;;;;4.40;1.20;;;13.00;99.90;;;;;;5042108;28;20432;-60
2021/11/02 08:54:02;;;;;;;6.60;1.38;;;12.80;99.90;;;;;;5039207;28;20515;-57
2021/11/02 08:56:28;;;;;;;5.10;1.23;;;12.60;99.90;;;;;;5045685;28;20397;-57
2021/11/02 08:58:55;;;;;;;5.63;1.47;;;12.20;99.90;;;;;;5032623;28;20403;-57
2021/11/02 09:01:25;;;;;;;5.63;1.10;;;11.90;99.90;;;;;;5044286;28;20437;-58
2021/11/02 09:04:01;;;;;;;5.28;1.17;;;12.00;99.90;;;;;;5038219;28;20413;-57
2021/11/02 09:06:27;;;;;;;4.68;1.10;;;12.00;99.90;;;;;;5037331;28;20395;-58
2021/11/02 09:08:58;;;;;;;5.82;1.00;;;11.90;99.90;;;;;;5046655;28;20413;-58
2021/11/02 09:11:25;;;;;;;4.35;1.00;;;11.90;99.90;;;;;;5039240;28;20419;-58
2021/11/02 09:13:53;;;;;;;5.50;1.40;;;10.90;99.90;;;;;;5038636;28;21192;-57
2021/11/02 09:16:21;;;;;;;4.75;1.05;;;11.60;99.90;;;;;;5028836;28;20452;-57
2021/11/02 09:18:48;;;;;;;5.05;1.02;;;11.60;99.90;;;;;;5035901;28;20412;-58
2021/11/02 09:21:15;;;;;;;5.70;1.10;;;11.80;99.90;;;;;;5028226;28;20457;-57
2021/11/02 09:23:46;;;;;;;5.43;1.13;;;11.50;99.90;;;;;;5037996;28;20421;-57
2021/11/02 09:26:19;;;;;;;6.38;1.10;;;11.20;99.90;;;;;;5038484;28;20775;-57
2021/11/02 09:28:46;;;;;;;4.10;1.03;;;11.10;99.90;;;;;;5048410;28;20385;-57
2021/11/02 09:31:13;;;;;;;6.40;1.30;;;11.10;99.90;;;;;;5038566;28;20892;-57
2021/11/02 09:33:40;;;;;;;5.80;1.50;;;11.00;99.90;;;;;;5040262;28;20403;-57
2021/11/02 09:36:08;;;;;;;3.97;1.10;;;10.50;99.90;;;;;;5044818;28;20411;-59
2021/11/02 09:38:54;;;;;;;5.10;1.13;;;10.60;99.90;;;;;;5047010;28;20574;-57
2021/11/02 09:41:54;;;;;;;4.25;1.30;;;10.50;99.90;;;;;;5044487;28;20461;-57
2021/11/02 09:44:40;;;;;;;5.20;1.23;;;10.30;99.90;;;;;;5031231;28;20417;-57
2021/11/02 09:47:44;;;;;;;7.63;1.30;;;10.20;99.90;;;;;;5045345;28;20467;-60
2021/11/02 09:50:51;;;;;;;4.80;1.50;;;10.10;99.90;;;;;;5045234;28;20404;-57
2021/11/02 09:53:56;;;;;;;4.88;1.17;;;10.00;99.90;;;;;;5044856;28;20402;-59
2021/11/02 09:56:48;;;;;;;6.20;1.30;;;10.00;99.90;;;;;;5044111;28;20397;-57
2021/11/02 09:59:46;;;;;;;4.95;1.02;;;10.10;99.90;;;;;;5028278;28;20493;-57
2021/11/02 10:02:49;;;;;;;4.22;1.00;;;10.10;99.90;;;;;;5028018;28;20803;-58
2021/11/02 10:05:52;;;;;;;4.18;1.00;;;10.10;99.90;;;;;;5042574;28;20437;-58
2021/11/02 10:08:56;;;;;;;5.72;1.30;;;10.00;99.90;;;;;;5047404;28;20417;-58
2021/11/02 10:11:43;;;;;;;4.18;1.13;;;10.00;99.90;;;;;;5045909;28;20455;-59
2021/11/02 10:14:32;;;;;;;4.60;1.20;;;9.90;99.90;;;;;;5044417;28;20525;-61
2021/11/02 10:17:12;;;;;;;6.30;1.30;;;10.00;99.90;;;;;;5047944;28;20389;-58
2021/11/02 10:19:54;;;;;;;6.10;1.60;;;10.10;99.90;;;;;;5045108;28;20408;-58
2021/11/02 10:22:35;;;;;;;5.80;1.40;;;10.10;99.90;;;;;;5043488;28;20478;-58
2021/11/02 10:25:11;;;;;;;4.83;1.30;;;10.10;99.90;;;;;;5041457;28;20432;-58
2021/11/02 10:27:46;;;;;;;4.93;1.20;;;10.00;99.90;;;;;;5038197;28;20403;-58
2021/11/02 10:30:23;;;;;;;4.70;1.50;;;10.10;99.90;;;;;;5040670;28;20401;-59
2021/11/02 10:32:49;;;;;;;4.25;1.30;;;10.00;99.90;;;;;;5044114;28;20421;-58
2021/11/02 10:35:26;;;;;;;6.60;1.60;;;10.00;99.90;;;;;;5044108;28;20444;-58
2021/11/02 10:38:03;;;;;;;6.00;1.70;;;10.20;99.90;;;;;;5035454;28;20474;-59
2021/11/02 10:40:48;;;;;;;7.53;1.80;;;10.10;99.90;;;;;;5038361;28;20425;-59
2021/11/02 10:43:52;;;;;;;7.70;2.20;;;10.10;99.90;;;;;;5043920;28;20398;-58
2021/11/02 10:46:30;;;;;;;5.63;1.80;;;10.10;99.90;;;;;;5047344;28;20416;-58
2021/11/02 10:49:00;;;;;;;6.13;2.10;;;10.00;99.90;;;;;;5049862;28;20456;-58
2021/11/02 10:51:35;;;;;;;5.47;2.00;;;10.00;99.90;;;;;;5050419;28;20389;-58
2021/11/02 10:54:16;;;;;;;5.23;2.00;;;9.90;99.90;;;;;;5051377;28;20498;-58
2021/11/02 10:57:15;;;;;;;7.03;2.53;;;9.90;99.90;;;;;;5050862;28;21184;-58
2021/11/02 10:59:45;;;;;;;6.80;2.30;;;9.80;99.90;;;;;;5050654;28;20404;-59
2021/11/02 11:02:32;;;;;;;6.50;2.30;;;9.90;99.90;;;;;;5050505;28;20400;-61
2021/11/02 11:05:03;;;;;;;6.75;2.15;;;10.00;99.90;;;;;;5049961;28;20869;-58
2021/11/02 11:07:39;;;;;;;5.80;2.13;;;10.00;99.90;;;;;;5048190;28;20397;-59
2021/11/02 11:10:06;;;;;;;6.40;2.30;;;10.20;99.90;;;;;;5048430;28;20421;-58
2021/11/02 11:12:51;;;;;;;6.70;2.33;;;10.30;99.90;;;;;;5050724;28;20467;-56
2021/11/02 11:15:17;;;;;;;6.17;2.00;;;10.40;99.90;;;;;;5047945;28;20385;-57
2021/11/02 11:18:09;;;;;;;8.00;2.33;;;10.40;99.90;;;;;;5047328;28;20416;-56
2021/11/02 11:20:40;;;;;;;9.18;2.42;;;10.70;99.90;;;;;;5045067;28;20463;-56
2021/11/02 11:23:10;;;;;;;6.90;2.20;;;10.80;99.90;;;;;;5049343;28;20452;-56
2021/11/02 11:25:53;;;;;;;6.95;2.45;;;10.90;99.90;;;;;;5042140;28;20885;-57
2021/11/02 11:28:20;;;;;;;5.55;2.42;;;11.00;99.90;;;;;;5047229;28;20405;-56
2021/11/02 11:30:48;;;;;;;7.60;2.40;;;11.10;99.90;;;;;;5047259;28;20718;-56
2021/11/02 11:33:18;;;;;;;6.97;2.10;;;11.10;99.90;;;;;;5042311;28;20407;-59
2021/11/02 11:35:45;;;;;;;6.45;1.90;;;11.10;99.90;;;;;;5043233;28;20401;-57
2021/11/02 11:38:13;;;;;;;5.78;2.00;;;10.80;99.90;;;;;;5048957;28;20459;-61
2021/11/02 11:40:42;;;;;;;7.57;1.98;;;10.80;99.90;;;;;;5049202;28;20409;-57
2021/11/02 11:43:10;;;;;;;5.93;2.00;;;10.90;99.90;;;;;;5038074;28;20521;-57
2021/11/02 11:45:39;;;;;;;4.97;2.22;;;10.90;99.90;;;;;;5045135;28;20385;-57
2021/11/02 11:48:21;;;;;;;6.20;2.40;;;11.20;99.90;;;;;;5043830;28;20467;-57
2021/11/02 11:50:48;;;;;;;6.55;2.00;;;11.00;99.90;;;;;;5039917;28;20415;-57
2021/11/02 11:53:18;;;;;;;6.35;2.10;;;10.90;99.90;;;;;;5045112;28;20483;-58
2021/11/02 11:55:50;;;;;;;7.00;2.20;;;10.90;99.90;;;;;;5046406;28;20412;-58
2021/11/02 11:58:25;;;;;;;5.00;1.85;;;11.10;99.90;;;;;;5042202;28;20428;-56
2021/11/02 12:01:05;;;;;;;5.70;1.80;;;11.20;99.90;;;;;;5036001;28;20504;-57
2021/11/02 12:03:42;;;;;;;5.45;1.80;;;11.30;99.90;;;;;;5043211;28;20401;-58
2021/11/02 12:06:21;;;;;;;6.32;1.90;;;11.40;99.90;;;;;;5041462;28;20462;-57
2021/11/02 12:08:57;;;;;;;4.65;1.63;;;11.50;99.90;;;;;;5046380;28;20512;-57
2021/11/02 12:11:29;;;;;;;4.50;1.70;;;11.70;99.90;;;;;;5043134;28;20461;-58
2021/11/02 12:14:07;;;;;;;5.22;1.80;;;11.60;99.90;;;;;;5041961;28;20438;-57
2021/11/02 12:16:42;;;;;;;5.40;2.05;;;11.50;99.90;;;;;;5041997;28;20495;-58
2021/11/02 12:19:18;;;;;;;6.57;2.30;;;11.50;99.90;;;;;;5045507;28;20405;-57
2021/11/02 12:21:51;;;;;;;4.50;1.30;;;11.50;99.90;;;;;;5049237;28;20413;-57
2021/11/02 12:24:20;;;;;;;5.20;1.50;;;11.50;99.90;;;;;;5044959;28;20405;-60
2021/11/02 12:26:49;;;;;;;3.97;1.10;;;11.40;99.90;;;;;;5041505;28;20433;-57
2021/11/02 12:29:33;;;;;;;4.40;0.70;;;11.30;99.90;;;;;;5044068;28;20410;-60
2021/11/02 12:32:07;;;;;;;3.90;0.85;;;11.10;99.90;;;;;;5046212;28;20515;-57
2021/11/02 12:34:50;;;;;;;4.60;0.80;;;11.00;99.90;;;;;;5046124;28;20418;-57
2021/11/02 12:37:17;;;;;;;3.55;0.73;;;10.70;99.90;;;;;;5045036;28;20520;-59
2021/11/02 12:39:44;;;;;;;3.40;0.60;;;10.70;99.90;;;;;;5047799;28;20412;-59
2021/11/02 12:42:11;;;;;;;6.45;0.77;;;10.80;99.90;;;;;;5036598;28;20423;-57
2021/11/02 12:44:39;;;;;;;5.30;0.80;;;10.70;99.90;;;;;;5056786;28;20395;-56
2021/11/02 12:47:13;;;;;;;4.83;0.70;;;10.70;99.90;;;;;;5044363;28;20397;-57
2021/11/02 12:50:00;;;;;;;4.60;0.70;;;11.00;99.90;;;;;;5042608;28;20474;-57
2021/11/02 12:52:35;;;;;;;3.72;0.80;;;11.10;99.90;;;;;;5039001;28;20418;-57
2021/11/02 12:55:08;;;;;;;10.20;3.30;;;10.80;99.90;;;;;;5057149;28;20409;-57
2021/11/02 12:57:39;;;;;;;3.70;0.60;;;10.90;99.90;;;;;;5035284;28;20959;-57
2021/11/02 13:00:08;;;;;;;5.50;1.20;;;11.00;99.90;;;;;;5035234;28;20415;-57
2021/11/02 13:02:42;;;;;;;4.28;1.50;;;11.20;99.90;;;;;;5044930;28;20416;-58
2021/11/02 13:05:17;;;;;;;4.87;1.50;;;11.40;99.90;;;;;;5028098;28;20422;-58
2021/11/02 13:07:44;;;;;;;6.38;1.77;;;12.20;99.90;;;;;;5036442;28;20440;-58
2021/11/02 13:10:19;;;;;;;4.32;1.63;;;11.50;99.90;;;;;;5037197;28;20421;-55
2021/11/02 13:12:49;;;;;;;4.88;1.50;;;11.80;99.90;;;;;;5039451;28;20995;-55
2021/11/02 13:15:15;;;;;;;5.55;1.70;;;11.90;99.90;;;;;;5043436;28;20407;-56
2021/11/02 13:17:44;;;;;;;5.97;2.15;;;12.10;99.90;;;;;;5037022;28;20433;-55
2021/11/02 13:20:13;;;;;;;4.97;1.70;;;12.30;99.90;;;;;;5039511;28;20426;-55
2021/11/02 13:22:49;;;;;;;5.38;2.10;;;12.50;99.90;;;;;;5033244;28;20647;-55
2021/11/02 13:25:23;;;;;;;8.00;2.13;;;12.80;99.90;;;;;;5035035;28;20449;-55
2021/11/02 13:27:53;;;;;;;5.50;2.45;;;12.90;99.90;;;;;;5037171;28;20479;-54
2021/11/02 13:30:40;;;;;;;5.68;1.88;;;12.90;99.90;;;;;;5038826;28;20409;-55
2021/11/02 13:33:06;;;;;;;6.70;2.00;;;12.80;99.90;;;;;;5042617;28;20489;-59
2021/11/02 13:35:51;;;;;;;7.80;3.50;;;12.90;99.90;;;;;;5043434;28;20473;-55
2021/11/02 13:38:22;;;;;;;5.65;2.15;;;13.00;99.90;;;;;;5045597;28;20408;-55
2021/11/02 13:40:49;;;;;;;5.30;2.30;;;13.00;99.90;;;;;;5038839;28;20448;-55
2021/11/02 13:43:26;;;;;;;7.50;4.32;;;13.10;99.90;;;;;;5032602;28;20877;-55
2021/11/02 13:45:53;;;;;;;4.50;1.50;;;12.80;99.90;;;;;;5030354;28;20757;-54
2021/11/02 13:48:19;;;;;;;4.50;0.90;;;12.90;99.90;;;;;;5035920;28;20405;-55
2021/11/02 13:50:46;;;;;;;4.40;1.10;;;12.70;99.90;;;;;;5038758;28;20490;-54
2021/11/02 13:53:12;;;;;;;3.45;0.60;;;12.60;99.90;;;;;;5037989;28;20509;-54
2021/11/02 13:55:38;;;;;;;3.80;0.77;;;12.30;99.90;;;;;;5039759;28;20536;-54
2021/11/02 13:58:03;;;;;;;5.30;0.60;;;12.20;99.90;;;;;;5044054;28;20419;-54
2021/11/02 14:00:33;;;;;;;5.20;0.60;;;12.00;99.90;;;;;;5044998;28;20405;-56
2021/11/02 14:03:01;;;;;;;5.20;0.90;;;11.80;99.90;;;;;;5035909;28;20423;-56
2021/11/02 14:05:28;;;;;;;3.60;0.60;;;11.70;99.90;;;;;;5029300;28;20509;-57
2021/11/02 14:07:54;;;;;;;4.40;1.58;;;11.70;99.90;;;;;;5036596;28;20455;-54
2021/11/02 14:10:27;;;;;;;3.40;0.50;;;11.80;99.90;;;;;;5029165;28;20501;-54
2021/11/02 14:12:52;;;;;;;4.60;0.73;;;11.90;99.90;;;;;;5028072;28;20445;-56
2021/11/02 14:15:20;;;;;;;5.00;0.60;;;12.00;99.90;;;;;;5029648;28;20395;-55
2021/11/02 14:17:52;;;;;;;3.70;0.90;;;11.90;99.90;;;;;;5035199;28;20414;-55
2021/11/02 14:20:33;;;;;;;3.90;0.70;;;12.20;99.90;;;;;;5031596;28;20501;-57
2021/11/02 14:22:59;;;;;;;3.50;0.57;;;12.50;99.90;;;;;;5033147;28;20423;-55
2021/11/02 14:25:40;;;;;;;3.60;0.40;;;12.40;99.90;;;;;;5030037;28;20409;-57
2021/11/02 14:28:06;;;;;;;3.60;0.60;;;11.90;99.90;;;;;;5030090;28;20821;-55
2021/11/02 14:30:32;;;;;;;8.95;0.85;;;11.90;99.90;;;;;;5037695;28;20405;-54
2021/11/02 14:33:02;;;;;;;4.37;0.90;;;11.90;99.90;;;;;;5030170;28;21160;-55
2021/11/02 14:35:38;;;;;;;3.60;0.60;;;11.90;99.90;;;;;;5027564;28;20394;-56
2021/11/02 14:38:07;;;;;;;3.60;0.60;;;11.90;99.90;;;;;;5038730;28;20409;-55
2021/11/02 14:40:35;;;;;;;3.80;0.60;;;11.80;99.90;;;;;;5039960;28;21069;-56
2021/11/02 14:43:14;;;;;;;3.90;0.70;;;11.90;99.90;;;;;;5038404;28;20447;-55
2021/11/02 14:45:42;;;;;;;3.60;0.70;;;11.80;99.90;;;;;;5037262;28;20416;-55
2021/11/02 14:48:26;;;;;;;4.40;0.80;;;12.00;99.90;;;;;;5041843;28;20403;-56
2021/11/02 14:50:55;;;;;;;3.70;0.50;;;11.80;99.90;;;;;;5040215;28;20530;-56
2021/11/02 14:53:37;;;;;;;4.03;0.60;;;11.70;99.90;;;;;;5040018;28;20397;-55
2021/11/02 14:56:07;;;;;;;3.63;0.60;;;11.60;99.90;;;;;;5042943;28;20400;-56
2021/11/02 14:58:39;;;;;;;3.30;0.50;;;11.70;99.90;;;;;;5042408;28;20872;-56
2021/11/02 15:01:15;;;;;;;3.50;0.60;;;11.60;99.90;;;;;;5040760;28;20506;-57
2021/11/02 15:03:59;;;;;;;4.50;0.60;;;11.40;99.90;;;;;;5041766;28;20401;-56
2021/11/02 15:06:31;;;;;;;4.00;0.80;;;11.50;99.90;;;;;;5040986;28;20407;-58
2021/11/02 15:08:58;;;;;;;13.00;5.38;;;11.60;99.90;;;;;;5039145;28;20424;-56
2021/11/02 15:11:24;;;;;;;4.47;1.47;;;11.70;99.90;;;;;;5041040;28;20470;-57
2021/11/02 15:13:55;;;;;;;5.05;2.30;;;11.70;99.90;;;;;;5042088;28;20865;-57
2021/11/02 15:16:22;;;;;;;10.27;6.80;;;11.70;99.90;;;;;;5042759;28;20491;-57
2021/11/02 15:19:07;;;;;;;7.60;3.58;;;11.70;99.90;;;;;;5038544;28;20404;-56
2021/11/02 15:21:41;;;;;;;3.60;0.68;;;11.80;99.90;;;;;;5039578;28;20527;-56
2021/11/02 15:24:18;;;;;;;3.50;0.57;;;11.60;99.90;;;;;;5043023;28;20413;-56
2021/11/02 15:27:01;;;;;;;3.80;0.70;;;11.60;99.90;;;;;;5038656;28;20416;-56
2021/11/02 15:29:29;;;;;;;3.75;0.80;;;11.60;99.90;;;;;;5039679;28;20415;-58
2021/11/02 15:32:00;;;;;;;3.90;0.70;;;11.60;99.90;;;;;;5039992;28;20437;-57
2021/11/02 15:34:39;;;;;;;3.90;0.88;;;11.50;99.90;;;;;;5039900;28;20451;-58
2021/11/02 15:37:07;;;;;;;8.70;4.97;;;11.20;99.90;;;;;;5047161;28;20492;-57
2021/11/02 15:39:33;;;;;;;6.00;2.75;;;11.20;99.90;;;;;;5047368;28;20417;-56
2021/11/02 15:41:59;;;;;;;5.60;1.48;;;11.20;99.90;;;;;;5045675;28;20459;-56
2021/11/02 15:44:29;;;;;;;5.20;1.77;;;11.00;99.90;;;;;;5041292;28;20408;-58
2021/11/02 15:46:55;;;;;;;4.07;0.80;;;11.00;99.90;;;;;;5046425;28;20401;-56
2021/11/02 15:49:24;;;;;;;7.38;2.28;;;10.90;99.90;;;;;;5044451;28;20465;-56
2021/11/02 15:51:58;;;;;;;29.27;12.15;;;10.70;99.90;;;;;;5045473;28;20415;-57
2021/11/02 15:54:26;;;;;;;27.88;12.63;;;10.50;99.90;;;;;;5043339;28;20874;-56
2021/11/02 15:57:07;;;;;;;9.77;4.57;;;10.50;99.90;;;;;;5042582;28;20408;-56
2021/11/02 15:59:33;;;;;;;5.63;2.17;;;10.40;99.90;;;;;;5045277;28;20489;-57
2021/11/02 16:01:59;;;;;;;4.10;1.00;;;10.20;99.90;;;;;;5038880;28;20450;-56
2021/11/02 16:04:25;;;;;;;5.63;1.63;;;10.20;99.90;;;;;;5045370;28;20405;-58
2021/11/02 16:07:09;;;;;;;5.73;2.27;;;10.20;99.90;;;;;;5045182;28;20745;-59
2021/11/02 16:09:53;;;;;;;4.70;1.00;;;10.10;99.90;;;;;;5037623;28;20409;-59
2021/11/02 16:12:35;;;;;;;4.10;0.52;;;10.00;99.90;;;;;;5040633;28;20421;-59
2021/11/02 16:15:34;;;;;;;12.82;5.65;;;10.00;99.90;;;;;;5034198;28;20502;-57
2021/11/02 16:18:06;;;;;;;12.25;5.07;;;9.80;99.90;;;;;;5045270;28;20405;-59
2021/11/02 16:20:37;;;;;;;10.23;3.85;;;8.40;99.90;;;;;;5046310;28;20427;-59
2021/11/02 16:23:05;;;;;;;20.45;9.88;;;9.70;99.90;;;;;;5048087;28;20454;-58
2021/11/02 16:25:33;;;;;;;4.70;1.33;;;9.70;99.90;;;;;;5044617;28;20498;-60
2021/11/02 16:28:04;;;;;;;4.30;0.70;;;9.60;99.90;;;;;;5038176;28;20518;-58
2021/11/02 16:30:34;;;;;;;5.80;1.75;;;10.80;99.90;;;;;;5040158;28;20417;-59
2021/11/02 16:33:00;;;;;;;5.50;0.95;;;9.80;99.90;;;;;;5038689;28;20407;-59
2021/11/02 16:35:37;;;;;;;4.25;1.02;;;9.80;99.90;;;;;;5042122;28;20510;-58
2021/11/02 16:38:32;;;;;;;3.80;0.80;;;9.80;99.90;;;;;;5041128;28;20898;-58
2021/11/02 16:41:02;;;;;;;3.90;0.90;;;9.80;99.90;;;;;;5043020;28;20507;-57
2021/11/02 16:43:38;;;;;;;3.97;0.90;;;9.70;99.90;;;;;;5044758;28;20435;-59
2021/11/02 16:46:05;;;;;;;4.43;1.50;;;8.70;99.90;;;;;;5046196;28;21004;-57
2021/11/02 16:48:45;;;;;;;3.80;1.00;;;9.50;99.90;;;;;;5039631;28;20885;-59
2021/11/02 16:51:14;;;;;;;4.20;1.23;;;9.60;99.90;;;;;;5045411;28;20805;-58
2021/11/02 16:53:40;;;;;;;4.10;1.20;;;9.60;99.90;;;;;;5039062;28;20408;-57
2021/11/02 16:56:26;;;;;;;4.00;1.00;;;9.60;99.90;;;;;;5040442;28;20413;-58
2021/11/02 16:58:55;;;;;;;4.80;1.10;;;9.50;99.90;;;;;;5043666;28;20519;-57
2021/11/02 17:01:29;;;;;;;4.55;1.60;;;9.50;99.90;;;;;;5045515;28;20409;-57
2021/11/02 17:03:58;;;;;;;4.05;1.30;;;9.30;99.90;;;;;;5046939;28;20803;-57
2021/11/02 17:06:32;;;;;;;4.78;1.70;;;9.40;99.90;;;;;;5047805;28;20424;-57
2021/11/02 17:09:01;;;;;;;4.47;1.87;;;9.20;99.90;;;;;;5047908;28;20425;-59
2021/11/02 17:11:27;;;;;;;4.60;1.80;;;9.10;99.90;;;;;;5047860;28;20416;-57
2021/11/02 17:13:54;;;;;;;4.35;1.50;;;9.00;99.90;;;;;;5048101;28;20386;-57
2021/11/02 17:16:24;;;;;;;5.00;2.00;;;8.90;99.90;;;;;;5044988;28;20459;-57
2021/11/02 17:18:53;;;;;;;5.38;2.03;;;8.90;99.90;;;;;;5043087;28;20579;-55
2021/11/02 17:21:21;;;;;;;12.02;4.55;;;8.60;99.90;;;;;;5044137;28;20474;-58
2021/11/02 17:23:47;;;;;;;4.50;1.10;;;8.50;99.90;;;;;;5043750;28;20420;-58
2021/11/02 17:26:14;;;;;;;4.40;1.20;;;8.60;99.90;;;;;;5046033;28;20402;-58
2021/11/02 17:28:44;;;;;;;5.70;2.37;;;8.50;99.90;;;;;;5046585;28;20412;-58
2021/11/02 17:31:10;;;;;;;5.55;1.98;;;8.50;99.90;;;;;;5042632;28;20394;-58
2021/11/02 17:33:36;;;;;;;5.43;2.20;;;8.50;99.90;;;;;;5046356;28;20388;-58
2021/11/02 17:36:04;;;;;;;3.83;1.02;;;8.50;99.90;;;;;;5048572;28;20374;-58
2021/11/02 17:38:32;;;;;;;4.38;1.30;;;8.60;99.90;;;;;;5048540;28;20416;-59
2021/11/02 17:41:01;;;;;;;5.18;1.40;;;8.50;99.90;;;;;;5046451;28;20409;-58
2021/11/02 17:43:27;;;;;;;4.90;2.00;;;8.70;99.90;;;;;;5048487;28;20404;-57
2021/11/02 17:45:54;;;;;;;4.30;1.60;;;8.80;99.90;;;;;;5076389;28;20397;-57
2021/11/02 17:48:21;;;;;;;4.28;1.60;;;8.80;99.90;;;;;;5044671;28;20412;-58
2021/11/02 17:50:47;;;;;;;6.00;1.50;;;8.80;99.90;;;;;;5044307;28;20396;-58
2021/11/02 17:53:13;;;;;;;4.90;1.10;;;8.70;99.90;;;;;;5046251;28;20493;-57
2021/11/02 17:55:39;;;;;;;4.63;1.40;;;8.60;99.90;;;;;;5047382;28;20381;-57
2021/11/02 17:58:06;;;;;;;3.80;1.10;;;8.60;99.90;;;;;;5047937;28;20962;-57
2021/11/02 18:00:33;;;;;;;4.28;1.33;;;8.60;99.90;;;;;;5043430;28;20963;-59
2021/11/02 18:02:58;;;;;;;5.60;1.60;;;8.70;99.90;;;;;;5043561;28;20464;-58
2021/11/02 18:05:27;;;;;;;118.07;40.22;;;8.60;99.90;;;;;;5045852;28;20397;-56
2021/11/02 18:07:57;;;;;;;4.65;1.40;;;8.60;99.90;;;;;;5055121;28;21050;-56
2021/11/02 18:10:25;;;;;;;5.38;1.67;;;8.50;99.90;;;;;;5038195;28;20537;-56
2021/11/02 18:12:52;;;;;;;5.43;1.50;;;8.30;99.90;;;;;;5047457;28;20409;-56
2021/11/02 18:15:18;;;;;;;85.93;21.10;;;8.30;99.90;;;;;;5048415;28;20382;-57
2021/11/02 18:17:46;;;;;;;72.47;18.90;;;8.20;99.90;;;;;;5043713;28;20455;-56
2021/11/02 18:20:13;;;;;;;13.73;3.35;;;8.10;99.90;;;;;;5044298;28;20944;-56